createdAt,value
2019-02-18T00:02:07.302Z,101761.17
2019-02-18T00:04:37.223Z,101761.20
2019-02-18T00:07:13.989Z,101755.23
2019-02-18T00:09:39.028Z,101754.61
2019-02-18T00:12:08.937Z,101758.31
2019-02-18T00:14:39.320Z,101764.12
2019-02-18T00:17:09.465Z,101759.78
2019-02-18T00:19:39.652Z,101759.16
2019-02-18T00:22:10.104Z,101758.59
2019-02-18T00:24:40.019Z,101758.89
2019-02-18T00:27:09.931Z,101761.55
2019-02-18T00:29:39.895Z,101755.56
2019-02-18T00:32:09.823Z,101758.83
2019-02-18T00:34:40.175Z,101759.16
2019-02-18T00:37:10.068Z,101751.02
2019-02-18T00:39:40.020Z,101747.58
2019-02-18T00:42:09.958Z,101754.06
2019-02-18T00:44:39.916Z,101745.64
2019-02-18T00:47:09.908Z,101741.37
2019-02-18T00:49:40.090Z,101743.50
2019-02-18T00:52:09.997Z,101742.82
2019-02-18T00:54:39.905Z,101739.65
2019-02-18T00:57:09.810Z,101741.20
2019-02-18T00:59:39.690Z,101740.48
2019-02-18T01:02:09.663Z,101742.50
2019-02-18T01:04:39.567Z,101737.45
2019-02-18T01:07:10.103Z,101751.53
2019-02-18T01:09:40.796Z,101737.42
2019-02-18T01:12:10.847Z,101742.95
2019-02-18T01:14:40.785Z,101738.22
2019-02-18T01:17:10.687Z,101739.73
2019-02-18T01:19:40.595Z,101740.41
2019-02-18T01:22:10.520Z,101739.24
2019-02-18T01:24:40.690Z,101735.30
2019-02-18T01:27:10.595Z,101736.84
2019-02-18T01:29:40.495Z,101734.78
2019-02-18T01:32:10.441Z,101730.75
2019-02-18T01:34:40.489Z,101727.38
2019-02-18T01:37:10.504Z,101722.68
2019-02-18T01:39:40.409Z,101722.31
2019-02-18T01:42:10.322Z,101723.54
2019-02-18T01:44:40.300Z,101716.09
2019-02-18T01:47:10.208Z,101715.83
2019-02-18T01:49:40.226Z,101708.95
2019-02-18T01:52:10.203Z,101713.42
2019-02-18T01:54:40.118Z,101702.71
2019-02-18T01:57:10.048Z,101706.91
2019-02-18T01:59:39.967Z,101710.23
2019-02-18T02:02:09.964Z,101704.63
2019-02-18T02:04:39.867Z,101708.59
2019-02-18T02:07:09.815Z,101708.36
2019-02-18T02:09:39.816Z,101702.28
2019-02-18T02:12:09.739Z,101702.81
2019-02-18T02:14:39.964Z,101707.26
2019-02-18T02:17:09.939Z,101707.38
2019-02-18T02:19:39.941Z,101700.67
2019-02-18T02:22:10.018Z,101697.89
2019-02-18T02:24:40.347Z,101697.14
2019-02-18T02:27:10.268Z,101695.16
2019-02-18T02:29:40.168Z,101695.67
2019-02-18T02:32:10.085Z,101695.86
2019-02-18T02:34:40.065Z,101699.13
2019-02-18T02:37:10.165Z,101698.02
2019-02-18T02:39:40.361Z,101697.67
2019-02-18T02:42:10.585Z,101696.99
2019-02-18T02:44:40.520Z,101689.28
2019-02-18T02:47:10.918Z,101691.81
2019-02-18T02:49:40.856Z,101690.81
2019-02-18T02:52:11.010Z,101690.33
2019-02-18T02:54:41.505Z,101686.77
2019-02-18T02:57:11.420Z,101679.89
2019-02-18T02:59:41.328Z,101679.39
2019-02-18T03:02:11.234Z,101675.30
2019-02-18T03:04:41.150Z,101681.91
2019-02-18T03:07:11.450Z,101677.84
2019-02-18T03:09:41.580Z,101674.73
2019-02-18T03:12:11.483Z,101675.72
2019-02-18T03:14:41.397Z,101675.03
2019-02-18T03:17:11.307Z,101675.34
2019-02-18T03:19:41.255Z,101678.22
2019-02-18T03:22:11.143Z,101674.59
2019-02-18T03:25:37.872Z,101682.90
2019-02-18T03:28:13.898Z,101680.50
2019-02-18T03:30:58.264Z,101687.13
2019-02-18T03:33:37.345Z,101687.06
2019-02-18T03:36:07.575Z,101685.30
2019-02-18T03:38:37.821Z,101690.53
2019-02-18T03:41:07.751Z,101689.69
2019-02-18T03:43:38.019Z,101690.94
2019-02-18T03:46:08.265Z,101685.44
2019-02-18T03:48:38.489Z,101681.13
2019-02-18T03:51:08.415Z,101687.63
2019-02-18T03:53:38.390Z,101688.95
2019-02-18T03:56:08.408Z,101689.17
2019-02-18T03:58:38.454Z,101679.98
2019-02-18T04:01:08.442Z,101680.19
2019-02-18T04:03:38.790Z,101682.38
2019-02-18T04:06:08.709Z,101683.89
2019-02-18T04:08:43.100Z,101680.47
2019-02-18T04:11:10.281Z,101675.55
2019-02-18T04:13:40.181Z,101675.44
2019-02-18T04:16:10.171Z,101688.73
2019-02-18T04:18:40.087Z,101679.73
2019-02-18T04:21:10.001Z,101675.58
2019-02-18T04:23:39.904Z,101679.62
2019-02-18T04:26:09.843Z,101683.63
2019-02-18T04:28:39.962Z,101681.15
2019-02-18T04:31:10.124Z,101681.04
2019-02-18T04:33:40.001Z,101679.89
2019-02-18T04:36:09.964Z,101682.80
2019-02-18T04:38:39.891Z,101683.38
2019-02-18T04:41:09.794Z,101681.62
2019-02-18T04:43:42.010Z,101685.06
2019-02-18T04:46:11.384Z,101679.65
2019-02-18T04:48:41.311Z,101677.31
2019-02-18T04:51:11.401Z,101679.05
2019-02-18T04:53:41.344Z,101674.45
2019-02-18T04:56:11.239Z,101680.05
2019-02-18T04:58:41.202Z,101677.54
2019-02-18T05:01:11.148Z,101688.11
2019-02-18T05:03:41.377Z,101676.51
2019-02-18T05:06:11.327Z,101673.47
2019-02-18T05:08:41.719Z,101671.02
2019-02-18T05:11:11.736Z,101669.64
2019-02-18T05:13:41.644Z,101663.73
2019-02-18T05:16:11.607Z,101670.70
2019-02-18T05:18:41.530Z,101662.51
2019-02-18T05:21:11.721Z,101660.23
2019-02-18T05:23:41.623Z,101670.19
2019-02-18T05:26:11.516Z,101666.36
2019-02-18T05:28:41.421Z,101666.81
2019-02-18T05:31:11.650Z,101664.89
2019-02-18T05:33:41.827Z,101672.88
2019-02-18T05:36:12.127Z,101665.30
2019-02-18T05:38:42.112Z,101666.17
2019-02-18T05:41:12.056Z,101667.22
2019-02-18T05:43:42.297Z,101661.05
2019-02-18T05:46:12.267Z,101657.44
2019-02-18T05:48:42.547Z,101664.85
2019-02-18T05:51:13.054Z,101663.68
2019-02-18T05:53:43.017Z,101670.55
2019-02-18T05:56:13.142Z,101671.77
2019-02-18T05:58:43.062Z,101669.27
2019-02-18T06:01:12.966Z,101670.44
2019-02-18T06:03:42.961Z,101663.63
2019-02-18T06:06:12.881Z,101666.41
2019-02-18T06:08:43.105Z,101663.91
2019-02-18T06:11:13.082Z,101666.71
2019-02-18T06:13:43.031Z,101671.23
2019-02-18T06:16:12.955Z,101669.95
2019-02-18T06:18:42.888Z,101668.21
2019-02-18T06:21:12.834Z,101667.99
2019-02-18T06:23:43.041Z,101667.65
2019-02-18T06:26:12.954Z,101668.73
2019-02-18T06:28:43.227Z,101674.28
2019-02-18T06:31:13.263Z,101675.16
2019-02-18T06:33:43.252Z,101684.34
2019-02-18T06:36:13.187Z,101681.27
2019-02-18T06:38:43.106Z,101676.97
2019-02-18T06:41:13.081Z,101675.56
2019-02-18T06:43:43.023Z,101678.36
2019-02-18T06:46:26.549Z,101682.20
2019-02-18T06:49:03.486Z,101691.41
2019-02-18T06:51:33.485Z,101693.41
2019-02-18T06:54:03.429Z,101693.21
2019-02-18T06:57:04.629Z,101698.11
2019-02-18T06:59:45.146Z,101700.45
2019-02-18T07:02:22.321Z,101697.36
2019-02-18T07:05:07.811Z,101705.28
2019-02-18T07:08:03.226Z,101700.63
2019-02-18T07:10:54.886Z,101699.34
2019-02-18T07:13:25.325Z,101706.06
2019-02-18T07:15:55.264Z,101704.71
2019-02-18T07:18:25.299Z,101696.21
2019-02-18T07:20:56.153Z,101695.09
2019-02-18T07:23:26.086Z,101690.94
2019-02-18T07:25:56.205Z,101697.77
2019-02-18T07:28:26.190Z,101697.33
2019-02-18T07:30:56.241Z,101692.95
2019-02-18T07:33:26.225Z,101697.80
2019-02-18T07:35:56.714Z,101692.51
2019-02-18T07:38:26.732Z,101693.96
2019-02-18T07:40:56.906Z,101698.71
2019-02-18T07:43:26.807Z,101699.38
2019-02-18T07:45:56.908Z,101702.02
2019-02-18T07:48:26.882Z,101711.13
2019-02-18T07:50:56.994Z,101714.25
2019-02-18T07:53:26.928Z,101707.87
2019-02-18T07:55:56.936Z,101702.08
2019-02-18T07:58:26.920Z,101698.47
2019-02-18T08:00:56.923Z,101703.61
2019-02-18T08:03:27.190Z,101702.98
2019-02-18T08:05:57.441Z,101699.88
2019-02-18T08:08:27.418Z,101690.47
2019-02-18T08:10:57.673Z,101699.88
2019-02-18T08:13:27.664Z,101700.20
2019-02-18T08:15:57.596Z,101702.09
2019-02-18T08:18:27.535Z,101703.38
2019-02-18T08:20:58.030Z,101706.36
2019-02-18T08:23:28.290Z,101705.72
2019-02-18T08:25:58.293Z,101703.83
2019-02-18T08:28:28.512Z,101702.89
2019-02-18T08:30:58.477Z,101705.95
2019-02-18T08:33:28.387Z,101701.54
2019-02-18T08:35:58.545Z,101708.13
2019-02-18T08:38:28.483Z,101709.67
2019-02-18T08:40:58.672Z,101705.28
2019-02-18T08:43:29.167Z,101699.22
2019-02-18T08:45:59.420Z,101707.14
2019-02-18T08:48:29.793Z,101704.93
2019-02-18T08:50:59.682Z,101701.46
2019-02-18T08:53:30.399Z,101706.27
2019-02-18T08:56:00.319Z,101707.02
2019-02-18T08:58:30.347Z,101706.57
2019-02-18T09:01:02.528Z,101708.05
2019-02-18T09:03:32.139Z,101715.99
2019-02-18T09:06:02.437Z,101714.32
2019-02-18T09:08:32.537Z,101701.94
2019-02-18T09:11:02.702Z,101694.22
2019-02-18T09:13:33.127Z,101696.48
2019-02-18T09:16:03.143Z,101697.79
2019-02-18T09:18:33.367Z,101693.22
2019-02-18T09:21:03.341Z,101691.72
2019-02-18T09:23:52.480Z,101688.20
2019-02-18T09:26:22.607Z,101678.19
2019-02-18T09:28:52.681Z,101682.50
2019-02-18T09:31:27.921Z,101680.90
2019-02-18T09:33:58.371Z,101677.16
2019-02-18T09:36:30.901Z,101677.16
2019-02-18T09:39:01.003Z,101673.64
2019-02-18T09:41:30.932Z,101677.15
2019-02-18T09:44:00.893Z,101673.48
2019-02-18T09:46:30.974Z,101668.56
2019-02-18T09:49:01.097Z,101671.95
2019-02-18T09:51:32.810Z,101673.56
2019-02-18T09:54:02.955Z,101672.94
2019-02-18T09:56:36.341Z,101676.38
2019-02-18T09:59:06.383Z,101665.34
2019-02-18T10:01:36.336Z,101660.36
2019-02-18T10:04:06.785Z,101667.23
2019-02-18T10:06:37.062Z,101663.38
2019-02-18T10:09:08.616Z,101660.41
2019-02-18T10:11:38.560Z,101659.73
2019-02-18T10:14:08.595Z,101655.19
2019-02-18T10:16:38.613Z,101658.81
2019-02-18T10:19:08.776Z,101657.30
2019-02-18T10:21:39.156Z,101660.35
2019-02-18T10:24:09.873Z,101660.26
2019-02-18T10:26:40.200Z,101649.98
2019-02-18T10:29:10.346Z,101649.08
2019-02-18T10:31:40.721Z,101652.67
2019-02-18T10:34:10.735Z,101649.01
2019-02-18T10:36:41.354Z,101646.52
2019-02-18T10:39:11.490Z,101643.94
2019-02-18T10:41:41.798Z,101642.37
2019-02-18T10:44:12.032Z,101637.73
2019-02-18T10:46:43.707Z,101629.73
2019-02-18T10:49:19.882Z,101626.25
2019-02-18T10:51:45.694Z,101625.81
2019-02-18T10:54:15.790Z,101619.98
2019-02-18T10:56:46.182Z,101617.12
2019-02-18T10:59:16.201Z,101616.27
2019-02-18T11:01:46.133Z,101611.48
2019-02-18T11:04:16.435Z,101613.82
2019-02-18T11:06:46.753Z,101612.14
2019-02-18T11:09:16.727Z,101608.32
2019-02-18T11:11:46.790Z,101604.34
2019-02-18T11:14:16.886Z,101595.73
2019-02-18T11:16:47.041Z,101599.77
2019-02-18T11:19:17.826Z,101591.11
2019-02-18T11:21:48.337Z,101591.80
2019-02-18T11:24:20.684Z,101587.54
2019-02-18T11:26:50.427Z,101590.13
2019-02-18T11:29:20.376Z,101581.94
2019-02-18T11:31:50.381Z,101586.02
2019-02-18T11:34:20.341Z,101580.09
2019-02-18T11:36:50.398Z,101576.52
2019-02-18T11:39:20.325Z,101577.81
2019-02-18T11:41:50.300Z,101578.64
2019-02-18T11:44:20.247Z,101567.50
2019-02-18T11:46:50.205Z,101562.97
2019-02-18T11:49:20.444Z,101553.75
2019-02-18T11:51:50.586Z,101557.84
2019-02-18T11:54:22.426Z,101551.36
2019-02-18T11:56:52.728Z,101548.84
2019-02-18T11:59:24.597Z,101544.72
2019-02-18T12:01:54.735Z,101539.95
2019-02-18T12:04:25.010Z,101538.28
2019-02-18T12:06:55.308Z,101534.77
2019-02-18T12:09:25.691Z,101528.94
2019-02-18T12:11:55.753Z,101524.78
2019-02-18T12:14:27.513Z,101523.27
2019-02-18T12:16:57.602Z,101524.27
2019-02-18T12:19:28.184Z,101520.44
2019-02-18T12:21:58.929Z,101510.23
2019-02-18T12:24:29.961Z,101504.85
2019-02-18T12:27:01.231Z,101506.70
2019-02-18T12:29:31.311Z,101506.23
2019-02-18T12:32:01.452Z,101508.00
2019-02-18T12:34:31.454Z,101505.00
2019-02-18T12:37:01.411Z,101500.30
2019-02-18T12:39:31.561Z,101502.84
2019-02-18T12:42:01.550Z,101498.84
2019-02-18T12:44:32.052Z,101499.05
2019-02-18T12:47:02.235Z,101491.89
2019-02-18T12:49:32.476Z,101491.86
2019-02-18T12:52:02.351Z,101492.63
2019-02-18T12:54:32.416Z,101485.73
2019-02-18T12:57:02.485Z,101481.42
2019-02-18T12:59:32.669Z,101482.72
2019-02-18T13:02:03.163Z,101481.98
2019-02-18T13:04:33.661Z,101476.22
2019-02-18T13:07:03.761Z,101473.58
2019-02-18T13:09:33.756Z,101476.10
2019-02-18T13:12:03.726Z,101464.94
2019-02-18T13:14:33.988Z,101463.65
2019-02-18T13:17:04.311Z,101460.98
2019-02-18T13:19:34.384Z,101452.31
2019-02-18T13:22:04.551Z,101442.85
2019-02-18T13:24:34.491Z,101440.17
2019-02-18T13:27:04.465Z,101440.22
2019-02-18T13:29:34.474Z,101430.30
2019-02-18T13:32:04.514Z,101424.65
2019-02-18T13:34:34.494Z,101426.42
2019-02-18T13:37:05.475Z,101423.25
2019-02-18T13:39:35.507Z,101418.58
2019-02-18T13:42:07.728Z,101430.44
2019-02-18T13:44:37.163Z,101424.82
2019-02-18T13:47:07.127Z,101422.70
2019-02-18T13:49:37.520Z,101417.20
2019-02-18T13:52:08.831Z,101411.25
2019-02-18T13:54:40.784Z,101419.52
2019-02-18T13:57:10.951Z,101417.33
2019-02-18T13:59:42.395Z,101414.38
2019-02-18T14:02:12.515Z,101410.23
2019-02-18T14:04:42.440Z,101412.55
2019-02-18T14:07:12.366Z,101413.58
2019-02-18T14:09:42.293Z,101404.76
2019-02-18T14:12:16.208Z,101410.46
2019-02-18T14:14:43.979Z,101404.85
2019-02-18T14:17:15.725Z,101408.86
2019-02-18T14:19:46.307Z,101404.38
2019-02-18T14:22:16.253Z,101404.31
2019-02-18T14:24:46.242Z,101393.88
2019-02-18T14:27:16.541Z,101394.89
2019-02-18T14:29:46.447Z,101387.41
2019-02-18T14:32:16.598Z,101397.08
2019-02-18T14:34:46.518Z,101391.73
2019-02-18T14:37:16.528Z,101395.25
2019-02-18T14:39:46.868Z,101390.13
2019-02-18T14:42:24.315Z,101393.16
2019-02-18T14:44:48.848Z,101396.98
2019-02-18T14:47:18.847Z,101385.12
2019-02-18T14:49:49.022Z,101388.67
2019-02-18T14:52:19.476Z,101387.02
2019-02-18T14:54:49.946Z,101375.94
2019-02-18T14:57:19.912Z,101378.91
2019-02-18T14:59:50.097Z,101362.39
2019-02-18T15:02:20.507Z,101369.76
2019-02-18T15:04:50.564Z,101367.17
2019-02-18T15:07:20.496Z,101368.66
2019-02-18T15:09:50.514Z,101367.12
2019-02-18T15:12:21.228Z,101359.91
2019-02-18T15:14:51.212Z,101377.92
2019-02-18T15:17:21.733Z,101365.47
2019-02-18T15:19:51.870Z,101366.13
2019-02-18T15:22:22.072Z,101356.85
2019-02-18T15:24:52.394Z,101351.28
2019-02-18T15:27:22.663Z,101342.02
2019-02-18T15:29:53.649Z,101340.77
2019-02-18T15:32:24.636Z,101340.67
2019-02-18T15:34:55.327Z,101337.75
2019-02-18T15:37:25.337Z,101343.62
2019-02-18T15:39:57.423Z,101335.00
2019-02-18T15:42:28.094Z,101335.44
2019-02-18T15:44:58.363Z,101339.03
2019-02-18T15:47:28.394Z,101337.77
2019-02-18T15:49:58.926Z,101339.14
2019-02-18T15:52:29.471Z,101332.66
2019-02-18T15:55:09.262Z,101337.80
2019-02-18T15:57:39.368Z,101333.86
2019-02-18T16:00:14.972Z,101342.44
2019-02-18T16:02:46.326Z,101333.36
2019-02-18T16:05:16.608Z,101333.59
2019-02-18T16:07:46.970Z,101326.72
2019-02-18T16:10:17.133Z,101332.41
2019-02-18T16:12:50.955Z,101327.22
2019-02-18T16:15:19.713Z,101327.95
2019-02-18T16:17:50.145Z,101313.79
2019-02-18T16:20:20.086Z,101324.58
2019-02-18T16:22:50.028Z,101315.07
2019-02-18T16:25:21.434Z,101311.99
2019-02-18T16:27:51.447Z,101319.34
2019-02-18T16:30:21.573Z,101318.49
2019-02-18T16:32:51.569Z,101315.92
2019-02-18T16:35:21.661Z,101316.20
2019-02-18T16:37:51.750Z,101319.35
2019-02-18T16:40:22.115Z,101328.16
2019-02-18T16:42:59.151Z,101328.98
2019-02-18T16:45:23.824Z,101323.94
2019-02-18T16:47:53.874Z,101329.81
2019-02-18T16:50:23.783Z,101329.07
2019-02-18T16:52:53.856Z,101332.23
2019-02-18T16:55:24.112Z,101327.69
2019-02-18T16:57:54.526Z,101321.38
2019-02-18T17:00:31.893Z,101328.25
2019-02-18T17:03:02.341Z,101326.89
2019-02-18T17:05:32.381Z,101332.48
2019-02-18T17:08:02.298Z,101329.87
2019-02-18T17:10:32.681Z,101337.17
2019-02-18T17:13:08.276Z,101332.36
2019-02-18T17:15:34.657Z,101328.98
2019-02-18T17:18:04.607Z,101327.16
2019-02-18T17:20:34.527Z,101327.14
2019-02-18T17:23:04.472Z,101325.75
2019-02-18T17:25:34.660Z,101322.32
2019-02-18T17:28:04.589Z,101325.77
2019-02-18T17:30:34.572Z,101328.31
2019-02-18T17:33:04.507Z,101324.43
2019-02-18T17:35:34.803Z,101327.47
2019-02-18T17:38:05.062Z,101316.14
2019-02-18T17:40:34.956Z,101313.55
2019-02-18T17:43:04.983Z,101314.44
2019-02-18T17:45:35.011Z,101312.20
2019-02-18T17:48:05.003Z,101308.28
2019-02-18T17:50:34.970Z,101310.41
2019-02-18T17:53:05.246Z,101306.50
2019-02-18T17:55:35.167Z,101303.34
2019-02-18T17:58:05.358Z,101292.88
2019-02-18T18:00:36.348Z,101290.18
2019-02-18T18:03:06.841Z,101288.42
2019-02-18T18:05:37.003Z,101288.83
2019-02-18T18:08:06.951Z,101281.50
2019-02-18T18:10:36.902Z,101283.13
2019-02-18T18:13:07.175Z,101281.47
2019-02-18T18:15:37.072Z,101281.44
2019-02-18T18:18:07.017Z,101277.72
2019-02-18T18:20:37.672Z,101274.27
2019-02-18T18:23:07.639Z,101275.53
2019-02-18T18:25:37.792Z,101275.94
2019-02-18T18:28:07.804Z,101273.59
2019-02-18T18:30:37.853Z,101269.69
2019-02-18T18:33:08.033Z,101280.42
2019-02-18T18:35:38.113Z,101278.77
2019-02-18T18:38:08.136Z,101272.17
2019-02-18T18:40:38.058Z,101270.89
2019-02-18T18:43:08.261Z,101261.34
2019-02-18T18:45:38.158Z,101260.82
2019-02-18T18:48:08.902Z,101258.34
2019-02-18T18:50:39.097Z,101260.45
2019-02-18T18:53:09.013Z,101257.34
2019-02-18T18:55:38.962Z,101248.77
2019-02-18T18:58:08.918Z,101249.53
2019-02-18T19:00:39.396Z,101251.75
2019-02-18T19:03:09.695Z,101241.71
2019-02-18T19:05:39.608Z,101242.11
2019-02-18T19:08:09.857Z,101238.20
2019-02-18T19:10:39.874Z,101234.33
2019-02-18T19:13:10.883Z,101239.95
2019-02-18T19:15:49.283Z,101239.85
2019-02-18T19:18:13.155Z,101230.67
2019-02-18T19:20:43.064Z,101230.78
2019-02-18T19:23:13.246Z,101228.23
2019-02-18T19:25:43.194Z,101232.14
2019-02-18T19:28:13.500Z,101229.13
2019-02-18T19:30:44.020Z,101229.49
2019-02-18T19:33:14.040Z,101228.56
2019-02-18T19:35:44.007Z,101227.63
2019-02-18T19:38:15.701Z,101231.03
2019-02-18T19:40:45.647Z,101226.37
2019-02-18T19:43:15.579Z,101232.40
2019-02-18T19:45:45.795Z,101238.38
2019-02-18T19:48:17.095Z,101237.05
2019-02-18T19:50:47.035Z,101231.75
2019-02-18T19:53:16.948Z,101236.98
2019-02-18T19:55:47.068Z,101233.86
2019-02-18T19:58:17.039Z,101227.05
2019-02-18T20:00:47.197Z,101228.30
2019-02-18T20:03:17.143Z,101229.52
2019-02-18T20:05:47.081Z,101226.86
2019-02-18T20:08:17.516Z,101220.30
2019-02-18T20:10:47.973Z,101217.64
2019-02-18T20:13:18.133Z,101214.52
2019-02-18T20:15:48.319Z,101210.61
2019-02-18T20:18:18.281Z,101208.02
2019-02-18T20:20:48.453Z,101211.03
2019-02-18T20:23:18.382Z,101210.09
2019-02-18T20:25:48.348Z,101207.52
2019-02-18T20:28:18.331Z,101209.66
2019-02-18T20:30:48.259Z,101207.67
2019-02-18T20:33:18.295Z,101209.35
2019-02-18T20:35:48.834Z,101210.56
2019-02-18T20:38:18.869Z,101210.56
2019-02-18T20:40:49.212Z,101204.42
2019-02-18T20:43:19.079Z,101198.80
2019-02-18T20:45:49.172Z,101198.80
2019-02-18T20:48:19.172Z,101200.98
2019-02-18T20:50:49.293Z,101191.48
2019-02-18T20:53:20.265Z,101194.33
2019-02-18T20:55:50.283Z,101189.64
2019-02-18T20:58:21.859Z,101187.20
2019-02-18T21:00:51.937Z,101184.80
2019-02-18T21:03:22.162Z,101177.36
2019-02-18T21:05:53.369Z,101179.63
2019-02-18T21:08:23.841Z,101180.45
2019-02-18T21:10:53.801Z,101174.39
2019-02-18T21:13:24.371Z,101176.58
2019-02-18T21:15:56.502Z,101174.16
2019-02-18T21:18:27.688Z,101170.36
2019-02-18T21:20:58.590Z,101173.23
2019-02-18T21:23:29.518Z,101168.94
2019-02-18T21:26:01.112Z,101172.58
2019-02-18T21:28:33.689Z,101165.70
2019-02-18T21:31:03.744Z,101171.28
2019-02-18T21:33:34.938Z,101163.57
2019-02-18T21:36:07.031Z,101162.06
2019-02-18T21:38:37.441Z,101168.55
2019-02-18T21:41:08.827Z,101160.34
2019-02-18T21:43:39.112Z,101159.66
2019-02-18T21:46:09.038Z,101160.56
2019-02-18T21:48:40.201Z,101161.34
2019-02-18T21:51:12.028Z,101154.41
2019-02-18T21:53:42.359Z,101159.59
2019-02-18T21:56:12.608Z,101149.27
2019-02-18T21:58:42.787Z,101153.97
2019-02-18T22:01:13.916Z,101154.59
2019-02-18T22:03:45.540Z,101155.64
2019-02-18T22:06:15.999Z,101141.41
2019-02-18T22:08:46.156Z,101140.62
2019-02-18T22:11:16.920Z,101144.11
2019-02-18T22:13:46.892Z,101141.17
2019-02-18T22:16:16.868Z,101141.56
2019-02-18T22:18:47.051Z,101140.09
2019-02-18T22:21:19.480Z,101126.53
2019-02-18T22:23:50.420Z,101131.13
2019-02-18T22:26:20.690Z,101125.25
2019-02-18T22:28:51.478Z,101122.84
2019-02-18T22:31:24.594Z,101125.77
2019-02-18T22:33:54.654Z,101123.19
2019-02-18T22:36:25.083Z,101121.77
2019-02-18T22:38:55.006Z,101126.74
2019-02-18T22:41:25.480Z,101120.44
2019-02-18T22:43:55.931Z,101125.67
2019-02-18T22:46:27.128Z,101124.69
2019-02-18T22:48:57.183Z,101125.55
2019-02-18T22:51:29.274Z,101122.02
2019-02-18T22:53:59.541Z,101119.53
2019-02-18T22:56:29.597Z,101113.38
2019-02-18T22:58:59.541Z,101116.30
2019-02-18T23:01:29.649Z,101117.63
2019-02-18T23:03:59.819Z,101114.53
2019-02-18T23:06:29.861Z,101112.14
2019-02-18T23:08:59.819Z,101114.77
2019-02-18T23:11:29.742Z,101117.78
2019-02-18T23:13:59.820Z,101112.70
2019-02-18T23:16:30.069Z,101121.69
2019-02-18T23:19:00.164Z,101110.34
2019-02-18T23:21:30.361Z,101110.50
2019-02-18T23:24:00.346Z,101101.94
2019-02-18T23:26:31.387Z,101106.00
2019-02-18T23:29:01.777Z,101100.50
2019-02-18T23:31:31.759Z,101104.63
2019-02-18T23:34:02.087Z,101100.03
2019-02-18T23:36:32.250Z,101096.42
2019-02-18T23:39:02.424Z,101094.37
2019-02-18T23:41:32.637Z,101098.89
2019-02-18T23:44:02.833Z,101096.74
2019-02-18T23:46:32.880Z,101090.31
2019-02-18T23:49:02.787Z,101091.50
2019-02-18T23:51:32.713Z,101096.25
2019-02-18T23:54:02.643Z,101087.39
2019-02-18T23:56:32.576Z,101082.20
2019-02-18T23:59:02.689Z,101082.75
